createdAt,value
2019-03-10T00:01:25.561Z,99.90
2019-03-10T00:03:55.950Z,99.90
2019-03-10T00:06:26.387Z,99.90
2019-03-10T00:08:56.284Z,99.90
2019-03-10T00:11:26.222Z,99.90
2019-03-10T00:13:56.485Z,99.90
2019-03-10T00:16:26.568Z,99.90
2019-03-10T00:18:58.367Z,99.90
2019-03-10T00:21:28.251Z,99.90
2019-03-10T00:23:58.339Z,99.90
2019-03-10T00:26:28.614Z,99.90
2019-03-10T00:28:58.694Z,99.90
2019-03-10T00:31:28.705Z,99.90
2019-03-10T00:33:59.271Z,99.90
2019-03-10T00:36:29.449Z,99.90
2019-03-10T00:39:12.319Z,99.90
2019-03-10T00:42:10.817Z,99.90
2019-03-10T00:45:12.258Z,99.90
2019-03-10T00:48:47.187Z,99.90
2019-03-10T00:51:56.822Z,99.90
2019-03-10T00:54:26.728Z,99.90
2019-03-10T00:56:56.746Z,99.90
2019-03-10T00:59:27.101Z,99.90
2019-03-10T01:01:57.099Z,99.90
2019-03-10T01:04:27.225Z,99.90
2019-03-10T01:06:58.613Z,99.90
2019-03-10T01:09:28.601Z,99.90
2019-03-10T01:11:58.787Z,99.90
2019-03-10T01:14:29.366Z,99.90
2019-03-10T01:16:59.948Z,99.90
2019-03-10T01:19:30.855Z,99.90
2019-03-10T01:22:01.944Z,99.90
2019-03-10T01:24:32.129Z,99.90
2019-03-10T01:27:02.025Z,99.90
2019-03-10T01:29:31.939Z,99.90
2019-03-10T01:32:54.892Z,99.90
2019-03-10T01:35:30.981Z,99.90
2019-03-10T01:38:01.535Z,99.90
2019-03-10T01:40:31.566Z,99.90
2019-03-10T01:43:01.531Z,99.90
2019-03-10T01:45:32.046Z,99.90
2019-03-10T01:48:01.932Z,99.90
2019-03-10T01:50:32.624Z,99.90
2019-03-10T01:53:03.327Z,99.90
2019-03-10T01:55:33.208Z,99.90
2019-03-10T01:58:03.174Z,99.90
2019-03-10T02:00:33.479Z,99.90
2019-03-10T02:03:03.482Z,99.90
2019-03-10T02:05:33.455Z,99.90
2019-03-10T02:08:04.061Z,99.90
2019-03-10T02:10:33.998Z,99.90
2019-03-10T02:13:03.981Z,99.90
2019-03-10T02:15:34.506Z,99.90
2019-03-10T02:18:04.804Z,99.90
2019-03-10T02:20:34.735Z,99.90
2019-03-10T02:23:05.599Z,99.90
2019-03-10T02:25:35.529Z,99.90
2019-03-10T02:28:05.543Z,99.90
2019-03-10T02:30:35.965Z,99.90
2019-03-10T02:33:05.964Z,99.90
2019-03-10T02:35:35.940Z,99.90
2019-03-10T02:38:06.614Z,99.90
2019-03-10T02:40:36.529Z,99.90
2019-03-10T02:43:06.505Z,99.90
2019-03-10T02:45:36.859Z,99.90
2019-03-10T02:48:06.813Z,99.90
2019-03-10T02:50:36.756Z,99.90
2019-03-10T02:53:07.464Z,99.90
2019-03-10T02:55:37.366Z,99.90
2019-03-10T02:58:07.328Z,99.90
2019-03-10T03:00:37.639Z,99.90
2019-03-10T03:03:07.575Z,99.90
2019-03-10T03:05:37.540Z,99.90
2019-03-10T03:08:08.255Z,99.90
2019-03-10T03:10:38.163Z,99.90
2019-03-10T03:13:08.147Z,99.90
2019-03-10T03:15:38.425Z,99.90
2019-03-10T03:18:08.361Z,99.90
2019-03-10T03:20:38.300Z,99.90
2019-03-10T03:23:08.885Z,99.90
2019-03-10T03:25:38.820Z,99.90
2019-03-10T03:28:08.773Z,99.90
2019-03-10T03:30:39.063Z,99.90
2019-03-10T03:33:08.982Z,99.90
2019-03-10T03:35:56.092Z,99.90
2019-03-10T03:38:55.745Z,99.90
2019-03-10T03:41:26.011Z,99.90
2019-03-10T03:43:56.186Z,99.90
2019-03-10T03:46:26.108Z,99.90
2019-03-10T03:48:56.493Z,99.90
2019-03-10T03:51:26.414Z,99.90
2019-03-10T03:53:56.627Z,99.90
2019-03-10T03:56:26.955Z,99.90
2019-03-10T03:58:56.911Z,99.90
2019-03-10T04:01:46.798Z,99.90
2019-03-10T04:04:16.766Z,99.90
2019-03-10T04:06:46.669Z,99.90
2019-03-10T04:09:17.404Z,99.90
2019-03-10T04:11:47.298Z,99.90
2019-03-10T04:14:17.388Z,99.90
2019-03-10T04:16:47.707Z,99.90
2019-03-10T04:19:17.730Z,99.90
2019-03-10T04:21:47.685Z,99.90
2019-03-10T04:24:18.447Z,99.90
2019-03-10T04:26:48.364Z,99.90
2019-03-10T04:29:18.367Z,99.90
2019-03-10T04:31:48.698Z,99.90
2019-03-10T04:34:18.706Z,99.90
2019-03-10T04:36:48.636Z,99.90
2019-03-10T04:39:19.448Z,99.90
2019-03-10T04:41:49.333Z,99.90
2019-03-10T04:44:19.269Z,99.90
2019-03-10T04:46:49.633Z,99.90
2019-03-10T04:49:19.590Z,99.90
2019-03-10T04:51:49.729Z,99.90
2019-03-10T04:54:35.471Z,99.90
2019-03-10T04:57:10.958Z,99.90
2019-03-10T04:59:41.017Z,99.90
2019-03-10T05:02:11.179Z,99.90
2019-03-10T05:04:41.092Z,99.90
2019-03-10T05:07:11.475Z,99.90
2019-03-10T05:09:41.836Z,99.90
2019-03-10T05:12:11.760Z,99.90
2019-03-10T05:14:42.259Z,99.90
2019-03-10T05:17:12.165Z,99.90
2019-03-10T05:19:42.169Z,99.90
2019-03-10T05:22:12.803Z,99.90
2019-03-10T05:24:43.150Z,99.90
2019-03-10T05:27:13.244Z,99.90
2019-03-10T05:29:43.203Z,99.90
2019-03-10T05:32:13.150Z,99.90
2019-03-10T05:34:43.499Z,99.90
2019-03-10T05:37:13.460Z,99.90
2019-03-10T05:39:43.769Z,99.90
2019-03-10T05:42:13.992Z,99.90
2019-03-10T05:44:43.922Z,99.90
2019-03-10T05:47:13.852Z,99.90
2019-03-10T05:49:44.245Z,99.90
2019-03-10T05:52:14.222Z,99.90
2019-03-10T05:54:44.515Z,99.90
2019-03-10T05:57:14.806Z,99.90
2019-03-10T05:59:44.769Z,99.90
2019-03-10T06:02:15.179Z,99.90
2019-03-10T06:04:45.118Z,99.90
2019-03-10T06:07:15.056Z,99.90
2019-03-10T06:09:45.661Z,99.90
2019-03-10T06:12:15.606Z,99.90
2019-03-10T06:14:45.624Z,99.90
2019-03-10T06:17:16.077Z,99.90
2019-03-10T06:19:45.996Z,99.90
2019-03-10T06:22:15.942Z,99.90
2019-03-10T06:24:46.534Z,99.90
2019-03-10T06:27:16.472Z,99.90
2019-03-10T06:29:46.557Z,99.90
2019-03-10T06:32:16.782Z,99.90
2019-03-10T06:34:46.685Z,99.90
2019-03-10T06:37:16.677Z,99.90
2019-03-10T06:39:47.458Z,99.90
2019-03-10T06:42:17.350Z,99.90
2019-03-10T06:44:47.328Z,99.90
2019-03-10T06:47:17.614Z,99.90
2019-03-10T06:49:47.525Z,99.90
2019-03-10T06:52:17.503Z,99.90
2019-03-10T06:54:48.082Z,99.90
2019-03-10T06:57:17.959Z,99.90
2019-03-10T06:59:49.866Z,99.90
2019-03-10T07:02:19.800Z,99.90
2019-03-10T07:04:49.731Z,99.90
2019-03-10T07:07:19.662Z,99.90
2019-03-10T07:09:50.333Z,99.90
2019-03-10T07:12:20.248Z,99.90
2019-03-10T07:14:50.247Z,99.90
2019-03-10T07:17:20.480Z,99.90
2019-03-10T07:19:50.413Z,99.90
2019-03-10T07:22:20.392Z,99.90
2019-03-10T07:24:50.943Z,99.90
2019-03-10T07:27:21.030Z,99.90
2019-03-10T07:30:08.604Z,99.90
2019-03-10T07:33:03.601Z,99.90
2019-03-10T07:35:48.374Z,99.90
2019-03-10T07:38:37.120Z,99.90
2019-03-10T07:41:25.160Z,99.90
2019-03-10T07:44:26.217Z,99.90
2019-03-10T07:47:11.863Z,99.90
2019-03-10T07:49:51.806Z,99.90
2019-03-10T07:52:38.158Z,99.90
2019-03-10T07:55:24.610Z,99.90
2019-03-10T07:58:20.264Z,99.90
2019-03-10T08:00:56.901Z,99.90
2019-03-10T08:03:45.931Z,99.90
2019-03-10T08:06:40.915Z,99.90
2019-03-10T08:09:39.016Z,99.90
2019-03-10T08:12:27.821Z,99.90
2019-03-10T08:15:22.229Z,99.90
2019-03-10T08:18:10.085Z,99.90
2019-03-10T08:20:52.243Z,99.90
2019-03-10T08:23:35.339Z,99.90
2019-03-10T08:26:17.236Z,99.90
2019-03-10T08:28:57.411Z,99.90
2019-03-10T08:31:38.642Z,99.90
2019-03-10T08:34:27.444Z,99.90
2019-03-10T08:37:25.654Z,99.90
2019-03-10T08:40:02.780Z,99.90
2019-03-10T08:42:45.385Z,99.90
2019-03-10T08:45:28.655Z,99.90
2019-03-10T08:48:27.077Z,99.90
2019-03-10T08:51:12.574Z,99.90
2019-03-10T08:53:48.536Z,99.90
2019-03-10T08:56:28.592Z,99.90
2019-03-10T08:59:20.305Z,99.90
2019-03-10T09:01:57.664Z,99.90
2019-03-10T09:04:59.157Z,99.90
2019-03-10T09:07:46.597Z,99.90
2019-03-10T09:10:27.442Z,99.90
2019-03-10T09:13:22.401Z,99.90
2019-03-10T09:16:10.069Z,99.90
2019-03-10T09:19:04.994Z,99.90
2019-03-10T09:21:57.201Z,99.90
2019-03-10T09:24:44.522Z,99.90
2019-03-10T09:27:39.748Z,99.90
2019-03-10T09:30:22.723Z,99.90
2019-03-10T09:33:11.717Z,99.90
2019-03-10T09:36:00.550Z,99.90
2019-03-10T09:38:45.622Z,99.90
2019-03-10T09:41:33.317Z,99.90
2019-03-10T09:44:22.471Z,99.90
2019-03-10T09:47:06.978Z,99.90
2019-03-10T09:49:49.936Z,99.90
2019-03-10T09:52:29.030Z,99.90
2019-03-10T09:55:21.292Z,99.90
2019-03-10T09:58:06.878Z,99.90
2019-03-10T10:00:43.560Z,99.90
2019-03-10T10:03:31.073Z,99.90
2019-03-10T10:06:12.075Z,99.90
2019-03-10T10:09:06.771Z,99.90
2019-03-10T10:11:52.479Z,99.90
2019-03-10T10:14:44.279Z,99.90
2019-03-10T10:17:23.972Z,99.90
2019-03-10T10:20:15.135Z,99.90
2019-03-10T10:22:54.970Z,99.90
2019-03-10T10:25:29.863Z,99.90
2019-03-10T10:28:18.179Z,99.90
2019-03-10T10:31:05.763Z,99.90
2019-03-10T10:34:12.987Z,99.90
2019-03-10T10:37:00.459Z,99.90
2019-03-10T10:39:46.221Z,99.90
2019-03-10T10:42:44.156Z,99.90
2019-03-10T10:45:32.316Z,99.90
2019-03-10T10:48:08.665Z,99.90
2019-03-10T10:50:56.633Z,99.90
2019-03-10T10:53:31.515Z,99.90
2019-03-10T10:56:19.530Z,99.90
2019-03-10T10:59:07.105Z,99.90
2019-03-10T11:01:50.259Z,99.90
2019-03-10T11:04:29.920Z,99.90
2019-03-10T11:07:28.017Z,99.90
2019-03-10T11:10:22.938Z,99.90
2019-03-10T11:13:11.036Z,99.90
2019-03-10T11:15:58.723Z,99.90
2019-03-10T11:19:00.324Z,99.90
2019-03-10T11:21:36.328Z,99.90
2019-03-10T11:24:14.111Z,99.90
2019-03-10T11:27:09.032Z,99.90
2019-03-10T11:30:09.938Z,99.90
2019-03-10T11:32:56.145Z,99.90
2019-03-10T11:35:44.358Z,99.90
2019-03-10T11:38:30.385Z,99.90
2019-03-10T11:41:33.302Z,99.90
2019-03-10T11:44:11.714Z,99.90
2019-03-10T11:46:50.171Z,99.90
2019-03-10T11:49:32.122Z,99.90
2019-03-10T11:52:27.363Z,99.90
2019-03-10T11:55:16.291Z,99.90
2019-03-10T11:58:03.778Z,99.90
2019-03-10T12:00:52.480Z,99.90
2019-03-10T12:03:42.111Z,99.90
2019-03-10T12:06:28.735Z,99.90
2019-03-10T12:09:15.106Z,99.90
2019-03-10T12:11:45.157Z,99.90
2019-03-10T12:14:15.218Z,99.90
2019-03-10T12:16:45.783Z,99.90
2019-03-10T12:19:15.653Z,99.90
2019-03-10T12:21:45.850Z,99.90
2019-03-10T12:24:16.773Z,99.90
2019-03-10T12:26:46.944Z,99.90
2019-03-10T12:29:16.829Z,99.90
2019-03-10T12:31:47.114Z,99.90
2019-03-10T12:34:17.053Z,99.90
2019-03-10T12:36:47.559Z,99.90
2019-03-10T12:39:18.295Z,99.90
2019-03-10T12:41:57.899Z,99.90
2019-03-10T12:44:20.514Z,99.90
2019-03-10T12:46:50.494Z,99.90
2019-03-10T12:49:20.432Z,99.90
2019-03-10T12:51:50.725Z,99.90
2019-03-10T12:54:21.214Z,99.90
2019-03-10T12:56:51.343Z,99.90
2019-03-10T12:59:21.378Z,93.60
2019-03-10T13:01:51.435Z,92.10
2019-03-10T13:04:21.851Z,92.70
2019-03-10T13:06:52.026Z,94.70
2019-03-10T13:09:22.607Z,92.20
2019-03-10T13:11:52.800Z,87.80
2019-03-10T13:14:22.764Z,89.20
2019-03-10T13:16:53.179Z,86.80
2019-03-10T13:19:23.091Z,83.20
2019-03-10T13:21:53.018Z,93.00
2019-03-10T13:24:23.896Z,92.20
2019-03-10T13:26:54.123Z,90.70
2019-03-10T13:29:24.045Z,86.10
2019-03-10T13:31:54.313Z,76.60
2019-03-10T13:34:24.246Z,61.50
2019-03-10T13:36:54.289Z,64.30
2019-03-10T13:39:25.074Z,88.00
2019-03-10T13:41:55.141Z,91.60
2019-03-10T13:44:25.092Z,89.80
2019-03-10T13:46:55.450Z,95.20
2019-03-10T13:49:25.386Z,91.00
2019-03-10T13:51:55.314Z,91.80
2019-03-10T13:54:27.239Z,85.60
2019-03-10T13:56:58.313Z,81.00
2019-03-10T13:59:28.738Z,62.70
2019-03-10T14:01:58.815Z,70.40
2019-03-10T14:04:29.050Z,70.70
2019-03-10T14:06:58.978Z,79.30
2019-03-10T14:09:29.247Z,80.10
2019-03-10T14:11:59.825Z,84.50
2019-03-10T14:14:29.821Z,93.90
2019-03-10T14:17:00.020Z,97.80
2019-03-10T14:19:30.026Z,97.30
2019-03-10T14:21:59.995Z,98.30
2019-03-10T14:24:30.869Z,99.60
2019-03-10T14:27:00.907Z,97.20
2019-03-10T14:29:30.907Z,97.00
2019-03-10T14:32:01.305Z,99.10
2019-03-10T14:34:31.382Z,98.60
2019-03-10T14:37:01.281Z,95.00
2019-03-10T14:39:31.863Z,90.80
2019-03-10T14:42:01.766Z,93.70
2019-03-10T14:44:31.858Z,87.60
2019-03-10T14:47:02.099Z,75.50
2019-03-10T14:49:32.025Z,91.90
2019-03-10T14:52:01.919Z,65.90
2019-03-10T14:54:32.671Z,88.30
2019-03-10T14:57:02.863Z,92.20
2019-03-10T14:59:33.186Z,94.10
2019-03-10T15:02:03.424Z,94.40
2019-03-10T15:04:33.300Z,94.40
2019-03-10T15:07:03.594Z,95.80
2019-03-10T15:09:34.040Z,99.20
2019-03-10T15:12:03.956Z,99.00
2019-03-10T15:14:34.023Z,95.30
2019-03-10T15:17:04.036Z,74.40
2019-03-10T15:19:33.960Z,72.30
2019-03-10T15:22:03.870Z,68.70
2019-03-10T15:24:34.246Z,64.60
2019-03-10T15:27:04.505Z,61.50
2019-03-10T15:29:34.437Z,67.00
2019-03-10T15:32:04.443Z,72.30
2019-03-10T15:34:34.497Z,81.40
2019-03-10T15:37:04.511Z,66.40
2019-03-10T15:39:34.713Z,78.90
2019-03-10T15:42:04.755Z,93.10
2019-03-10T15:44:34.698Z,87.60
2019-03-10T15:47:04.679Z,81.00
2019-03-10T15:49:34.668Z,81.60
2019-03-10T15:52:04.559Z,93.70
2019-03-10T15:54:35.160Z,94.90
2019-03-10T15:57:05.172Z,93.00
2019-03-10T15:59:35.113Z,94.90
2019-03-10T16:02:05.181Z,88.00
2019-03-10T16:04:35.104Z,87.50
2019-03-10T16:07:05.666Z,96.40
2019-03-10T16:09:36.077Z,95.50
2019-03-10T16:12:06.082Z,99.50
2019-03-10T16:14:35.978Z,99.90
2019-03-10T16:17:05.960Z,99.90
2019-03-10T16:19:35.994Z,99.90
2019-03-10T16:22:05.932Z,99.90
2019-03-10T16:24:36.294Z,99.90
2019-03-10T16:27:06.180Z,99.90
2019-03-10T16:29:36.081Z,99.90
2019-03-10T16:32:06.181Z,99.90
2019-03-10T16:34:36.133Z,99.90
2019-03-10T16:37:06.005Z,99.90
2019-03-10T16:39:36.079Z,99.90
2019-03-10T16:42:06.459Z,99.90
2019-03-10T16:44:36.494Z,99.90
2019-03-10T16:47:06.473Z,99.90
2019-03-10T16:49:36.438Z,99.90
2019-03-10T16:52:06.422Z,99.90
2019-03-10T16:54:36.396Z,99.90
2019-03-10T16:57:06.910Z,99.90
2019-03-10T16:59:36.838Z,99.90
2019-03-10T17:02:06.771Z,99.90
2019-03-10T17:04:36.710Z,99.90
2019-03-10T17:07:06.963Z,99.90
2019-03-10T17:09:37.249Z,99.90
2019-03-10T17:12:07.593Z,99.90
2019-03-10T17:14:37.493Z,99.90
2019-03-10T17:17:07.634Z,99.90
2019-03-10T17:19:37.535Z,99.90
2019-03-10T17:22:07.493Z,99.90
2019-03-10T17:24:37.862Z,99.90
2019-03-10T17:27:08.169Z,99.90
2019-03-10T17:29:38.085Z,99.90
2019-03-10T17:32:08.473Z,99.90
2019-03-10T17:34:38.424Z,99.90
2019-03-10T17:37:08.396Z,99.90
2019-03-10T17:39:38.387Z,99.90
2019-03-10T17:42:08.573Z,99.90
2019-03-10T17:44:41.499Z,99.90
2019-03-10T17:47:10.133Z,99.90
2019-03-10T17:49:40.071Z,99.90
2019-03-10T17:52:14.301Z,99.90
2019-03-10T17:54:41.578Z,99.90
2019-03-10T17:57:11.947Z,99.90
2019-03-10T17:59:41.883Z,99.90
2019-03-10T18:02:11.889Z,99.90
2019-03-10T18:04:41.780Z,99.90
2019-03-10T18:07:11.712Z,99.90
2019-03-10T18:09:41.968Z,99.90
2019-03-10T18:12:12.154Z,99.90
2019-03-10T18:14:42.071Z,99.90
2019-03-10T18:17:12.018Z,99.90
2019-03-10T18:19:41.960Z,99.90
2019-03-10T18:22:11.874Z,99.90
2019-03-10T18:24:41.901Z,99.90
2019-03-10T18:27:12.309Z,99.90
2019-03-10T18:29:42.234Z,99.90
2019-03-10T18:32:12.183Z,99.90
2019-03-10T18:34:42.087Z,99.90
2019-03-10T18:37:12.014Z,99.90
2019-03-10T18:39:42.016Z,99.90
2019-03-10T18:42:12.297Z,99.90
2019-03-10T18:44:42.361Z,99.90
2019-03-10T18:47:12.295Z,99.90
2019-03-10T18:49:42.231Z,99.90
2019-03-10T18:52:12.155Z,99.90
2019-03-10T18:54:42.119Z,99.90
2019-03-10T18:57:12.013Z,99.90
2019-03-10T18:59:41.922Z,99.90
2019-03-10T19:02:11.953Z,99.90
2019-03-10T19:04:41.846Z,99.90
2019-03-10T19:07:11.728Z,99.90
2019-03-10T19:09:41.794Z,99.90
2019-03-10T19:12:11.974Z,99.90
2019-03-10T19:14:42.171Z,99.90
2019-03-10T19:17:12.155Z,99.90
2019-03-10T19:19:42.305Z,99.90
2019-03-10T19:22:12.199Z,99.90
2019-03-10T19:24:42.173Z,99.90
2019-03-10T19:27:12.154Z,99.90
2019-03-10T19:29:42.418Z,99.90
2019-03-10T19:32:12.378Z,99.90
2019-03-10T19:34:42.406Z,99.90
2019-03-10T19:37:12.336Z,99.90
2019-03-10T19:39:42.271Z,99.90
2019-03-10T19:42:12.148Z,99.90
2019-03-10T19:44:42.721Z,99.90
2019-03-10T19:47:12.658Z,99.90
2019-03-10T19:49:42.528Z,99.90
2019-03-10T19:52:12.462Z,99.90
2019-03-10T19:54:42.425Z,99.90
2019-03-10T19:57:12.291Z,99.90
2019-03-10T19:59:42.360Z,99.90
2019-03-10T20:02:12.553Z,99.90
2019-03-10T20:04:42.458Z,99.90
2019-03-10T20:07:12.512Z,99.90
2019-03-10T20:09:42.744Z,99.90
2019-03-10T20:12:12.691Z,99.90
2019-03-10T20:14:42.952Z,99.90
2019-03-10T20:17:12.960Z,99.90
2019-03-10T20:19:43.686Z,99.90
2019-03-10T20:22:13.590Z,99.90
2019-03-10T20:24:43.857Z,99.90
2019-03-10T20:27:14.034Z,99.90
2019-03-10T20:29:44.099Z,99.90
2019-03-10T20:32:14.421Z,99.90
2019-03-10T20:34:44.495Z,99.90
2019-03-10T20:37:14.371Z,99.90
2019-03-10T20:39:44.328Z,99.90
2019-03-10T20:42:14.513Z,99.90
2019-03-10T20:44:44.438Z,99.90
2019-03-10T20:47:14.436Z,99.90
2019-03-10T20:49:44.354Z,99.90
2019-03-10T20:52:14.212Z,99.90
2019-03-10T20:54:44.144Z,99.90
2019-03-10T20:57:14.070Z,99.90
2019-03-10T20:59:44.018Z,99.90
2019-03-10T21:02:13.961Z,99.90
2019-03-10T21:04:43.884Z,99.90
2019-03-10T21:07:13.840Z,99.90
2019-03-10T21:09:43.811Z,99.90
2019-03-10T21:12:13.860Z,99.90
2019-03-10T21:14:43.789Z,99.90
2019-03-10T21:17:13.838Z,99.90
2019-03-10T21:19:43.780Z,99.90
2019-03-10T21:22:13.710Z,99.90
2019-03-10T21:24:43.740Z,99.90
2019-03-10T21:27:13.716Z,99.90
2019-03-10T21:29:43.660Z,99.90
2019-03-10T21:32:13.915Z,99.90
2019-03-10T21:34:43.825Z,99.90
2019-03-10T21:37:13.829Z,99.90
2019-03-10T21:39:43.779Z,99.90
2019-03-10T21:42:13.695Z,99.90
2019-03-10T21:44:43.655Z,99.90
2019-03-10T21:47:13.857Z,99.90
2019-03-10T21:49:43.871Z,99.90
2019-03-10T21:52:13.927Z,99.90
2019-03-10T21:54:43.887Z,99.90
2019-03-10T21:57:13.809Z,99.90
2019-03-10T21:59:43.773Z,99.90
2019-03-10T22:02:13.919Z,99.90
2019-03-10T22:04:43.869Z,99.90
2019-03-10T22:07:13.829Z,99.90
2019-03-10T22:09:43.768Z,99.90
2019-03-10T22:12:13.709Z,99.90
2019-03-10T22:14:43.619Z,99.90
2019-03-10T22:17:13.856Z,99.90
2019-03-10T22:19:43.754Z,99.90
2019-03-10T22:22:13.791Z,99.90
2019-03-10T22:24:43.819Z,99.90
2019-03-10T22:27:13.943Z,99.90
2019-03-10T22:29:43.875Z,99.90
2019-03-10T22:32:14.192Z,99.90
2019-03-10T22:34:44.155Z,99.90
2019-03-10T22:37:14.077Z,99.90
2019-03-10T22:39:44.012Z,99.90
2019-03-10T22:42:13.948Z,99.90
2019-03-10T22:44:46.440Z,99.90
2019-03-10T22:47:15.938Z,99.90
2019-03-10T22:49:45.831Z,99.90
2019-03-10T22:52:15.951Z,99.90
2019-03-10T22:54:46.154Z,99.90
2019-03-10T22:57:16.191Z,99.90
2019-03-10T22:59:46.142Z,99.90
2019-03-10T23:02:16.624Z,99.90
2019-03-10T23:04:46.560Z,99.90
2019-03-10T23:07:16.491Z,99.90
2019-03-10T23:09:46.465Z,99.90
2019-03-10T23:12:16.354Z,99.90
2019-03-10T23:14:46.349Z,99.90
2019-03-10T23:17:16.385Z,99.90
2019-03-10T23:19:46.284Z,99.90
2019-03-10T23:22:16.319Z,99.90
2019-03-10T23:24:46.270Z,99.90
2019-03-10T23:27:16.190Z,99.90
2019-03-10T23:29:46.148Z,99.90
2019-03-10T23:32:16.542Z,99.90
2019-03-10T23:34:46.468Z,99.90
2019-03-10T23:37:16.355Z,99.90
2019-03-10T23:39:46.329Z,99.90
2019-03-10T23:42:16.351Z,99.90
2019-03-10T23:44:46.268Z,99.90
2019-03-10T23:47:16.179Z,99.90
2019-03-10T23:49:46.650Z,99.90
2019-03-10T23:52:16.607Z,99.90
2019-03-10T23:54:46.706Z,99.90
2019-03-10T23:57:16.592Z,99.90
2019-03-10T23:59:46.682Z,99.90
